Time;durP1;ratioP1;P1;durP2;ratioP2;P2;SDS_P1;SDS_P2;PMS_P1;PMS_P2;Temp;Humidity;BMP_temperature;BMP_pressure;BME280_temperature;BME280_humidity;BME280_pressure;Samples;Min_cycle;Max_cycle;Signal;HPM_P1;HPM_P2
2023/07/30 00:00:06;;;;;;;4.65;3.10;;;;;;;;;;4383180;32;71578;-56
2023/07/30 00:02:57;;;;;;;6.07;3.50;;;;;;;;;;4372261;32;65675;-57
2023/07/30 00:05:53;;;;;;;4.25;3.05;;;;;;;;;;4382992;32;67973;-56
2023/07/30 00:08:39;;;;;;;3.67;2.83;;;;;;;;;;4383061;32;67509;-56
2023/07/30 00:11:26;;;;;;;5.20;3.53;;;;;;;;;;4382795;32;71821;-56
2023/07/30 00:14:12;;;;;;;6.05;3.10;;;;;;;;;;4371144;32;65865;-56
2023/07/30 00:16:59;;;;;;;4.72;2.97;;;;;;;;;;4383071;32;66809;-56
2023/07/30 00:19:45;;;;;;;4.50;3.20;;;;;;;;;;4383081;32;59296;-57
2023/07/30 00:22:32;;;;;;;4.62;3.00;;;;;;;;;;4380541;32;70963;-56
2023/07/30 00:25:18;;;;;;;;;;;;;;;;;;4383291;32;68371;-56
2023/07/30 00:28:05;;;;;;;6.10;3.37;;;;;;;;;;4382984;32;66723;-57
2023/07/30 00:30:51;;;;;;;5.47;3.10;;;;;;;;;;4381873;32;60048;-56
2023/07/30 00:33:38;;;;;;;6.30;3.30;;;;;;;;;;4382597;32;70416;-56
2023/07/30 00:36:24;;;;;;;3.90;3.10;;;;;;;;;;4382559;32;69359;-57
2023/07/30 00:39:11;;;;;;;5.07;3.47;;;;;;;;;;4370970;32;66909;-56
2023/07/30 00:41:58;;;;;;;5.82;2.80;;;;;;;;;;4359920;32;70641;-57
2023/07/30 00:44:45;;;;;;;5.87;4.00;;;;;;;;;;4382818;32;65933;-57
2023/07/30 00:47:32;;;;;;;;;;;;;;;;;;4374741;32;66757;-57
2023/07/30 00:50:18;;;;;;;7.78;3.42;;;;;;;;;;4376017;32;59224;-57
2023/07/30 00:53:06;;;;;;;4.75;3.20;;;;;;;;;;4385782;32;70138;-58
2023/07/30 00:55:53;;;;;;;4.57;2.90;;;;;;;;;;4351619;32;67270;-57
2023/07/30 00:58:40;;;;;;;;;;;;;;;;;;4363190;32;67122;-57
2023/07/30 01:01:27;;;;;;;6.53;3.25;;;;;;;;;;4373889;32;58830;-57
2023/07/30 01:04:15;;;;;;;4.32;3.03;;;;;;;;;;4373601;32;70704;-56
2023/07/30 01:07:02;;;;;;;6.85;3.08;;;;;;;;;;4383956;32;69686;-57
2023/07/30 01:09:49;;;;;;;3.87;2.75;;;;;;;;;;4359756;32;68513;-57
2023/07/30 01:12:36;;;;;;;10.10;3.47;;;;;;;;;;4373124;32;71540;-56
2023/07/30 01:15:23;;;;;;;5.43;3.05;;;;;;;;;;4373295;32;65075;-57
2023/07/30 01:18:10;;;;;;;5.20;3.22;;;;;;;;;;4383819;32;68168;-55
2023/07/30 01:21:00;;;;;;;4.50;3.20;;;;;;;;;;4382755;32;68315;-57
2023/07/30 01:23:47;;;;;;;5.50;3.30;;;;;;;;;;4383628;32;71959;-57
2023/07/30 01:26:45;;;;;;;5.55;3.12;;;;;;;;;;4384866;32;65854;-57
2023/07/30 01:29:34;;;;;;;5.05;3.00;;;;;;;;;;4373008;32;68071;-57
2023/07/30 01:32:25;;;;;;;5.60;3.22;;;;;;;;;;4384992;32;59090;-56
2023/07/30 01:35:14;;;;;;;5.87;3.30;;;;;;;;;;4373099;32;69600;-57
2023/07/30 01:38:03;;;;;;;5.72;3.30;;;;;;;;;;4372727;32;68611;-57
2023/07/30 01:40:50;;;;;;;4.40;2.87;;;;;;;;;;4372667;32;66707;-57
2023/07/30 01:43:36;;;;;;;9.43;3.40;;;;;;;;;;4362526;32;71464;-57
2023/07/30 01:46:23;;;;;;;5.18;3.10;;;;;;;;;;4372742;32;70608;-57
2023/07/30 01:49:10;;;;;;;8.10;3.40;;;;;;;;;;4382455;32;70627;-56
2023/07/30 01:51:56;;;;;;;6.65;3.12;;;;;;;;;;4384704;32;67398;-57
2023/07/30 01:54:43;;;;;;;6.10;3.10;;;;;;;;;;4383153;32;71634;-57
2023/07/30 01:57:31;;;;;;;6.62;3.00;;;;;;;;;;4384656;32;64861;-56
2023/07/30 02:00:18;;;;;;;6.47;3.30;;;;;;;;;;4384567;32;67053;-56
2023/07/30 02:03:05;;;;;;;5.82;3.22;;;;;;;;;;4384529;32;60166;-56
2023/07/30 02:05:52;;;;;;;6.30;3.28;;;;;;;;;;4372656;32;70686;-56
2023/07/30 02:08:38;;;;;;;7.43;3.53;;;;;;;;;;4384589;32;69196;-56
2023/07/30 02:11:25;;;;;;;8.98;3.97;;;;;;;;;;4382232;32;69851;-56
2023/07/30 02:14:12;;;;;;;5.25;3.10;;;;;;;;;;4384620;32;59184;-57
2023/07/30 02:16:59;;;;;;;7.22;3.20;;;;;;;;;;4382026;32;71155;-57
2023/07/30 02:19:45;;;;;;;5.20;3.55;;;;;;;;;;4384384;32;68056;-57
2023/07/30 02:22:32;;;;;;;;;;;;;;;;;;4382392;32;67167;-57
2023/07/30 02:25:19;;;;;;;4.87;3.17;;;;;;;;;;4372497;32;70695;-57
2023/07/30 02:28:05;;;;;;;5.25;3.10;;;;;;;;;;4384210;32;64996;-57
2023/07/30 02:30:52;;;;;;;6.57;3.03;;;;;;;;;;4381941;32;68984;-56
2023/07/30 02:33:39;;;;;;;5.28;3.17;;;;;;;;;;4384096;32;67670;-57
2023/07/30 02:36:26;;;;;;;6.30;2.80;;;;;;;;;;4384059;32;70955;-56
2023/07/30 02:39:12;;;;;;;;;;;;;;;;;;4384477;32;66150;-57
2023/07/30 02:41:58;;;;;;;5.35;2.87;;;;;;;;;;4384065;32;68002;-56
2023/07/30 02:44:45;;;;;;;;;;;;;;;;;;4384560;32;60213;-57
2023/07/30 02:47:31;;;;;;;4.47;2.65;;;;;;;;;;4384061;32;69067;-56
2023/07/30 02:50:18;;;;;;;4.90;2.62;;;;;;;;;;4372247;32;70072;-56
2023/07/30 02:53:05;;;;;;;6.50;2.90;;;;;;;;;;4361553;32;66687;-57
2023/07/30 02:55:52;;;;;;;3.90;2.80;;;;;;;;;;4384062;32;70966;-57
2023/07/30 02:58:39;;;;;;;4.32;2.60;;;;;;;;;;4369116;32;71047;-56
2023/07/30 03:01:26;;;;;;;4.95;3.10;;;;;;;;;;4383825;32;69606;-57
2023/07/30 03:04:13;;;;;;;6.40;3.20;;;;;;;;;;4383764;32;66782;-57
2023/07/30 03:06:59;;;;;;;;;;;;;;;;;;4381830;32;71346;-57
2023/07/30 03:09:46;;;;;;;6.67;2.83;;;;;;;;;;4369462;32;66324;-57
2023/07/30 03:12:32;;;;;;;;;;;;;;;;;;4384015;32;67064;-57
2023/07/30 03:15:19;;;;;;;4.32;2.97;;;;;;;;;;4368716;32;60227;-58
2023/07/30 03:18:06;;;;;;;4.85;2.70;;;;;;;;;;4371755;32;70677;-57
2023/07/30 03:20:58;;;;;;;;;;;;;;;;;;4383893;32;69476;-57
2023/07/30 03:23:44;;;;;;;8.30;2.70;;;;;;;;;;4371949;32;68102;-56
2023/07/30 03:26:31;;;;;;;4.30;2.47;;;;;;;;;;4371744;32;60165;-57
2023/07/30 03:29:17;;;;;;;4.47;2.55;;;;;;;;;;4371247;32;70665;-57
2023/07/30 03:32:04;;;;;;;;;;;;;;;;;;4383695;32;68305;-56
2023/07/30 03:34:50;;;;;;;3.90;2.58;;;;;;;;;;4371605;32;67520;-57
2023/07/30 03:37:37;;;;;;;3.42;2.53;;;;;;;;;;4383267;32;71147;-57
2023/07/30 03:40:25;;;;;;;4.80;2.90;;;;;;;;;;4371240;32;66444;-56
2023/07/30 03:43:12;;;;;;;4.07;2.65;;;;;;;;;;4383357;32;67022;-57
2023/07/30 03:45:58;;;;;;;3.83;2.62;;;;;;;;;;4383429;32;60132;-56
2023/07/30 03:48:45;;;;;;;6.68;2.70;;;;;;;;;;4383115;32;71684;-57
2023/07/30 03:51:32;;;;;;;6.55;2.70;;;;;;;;;;4381037;32;67297;-57
2023/07/30 03:54:19;;;;;;;3.95;2.72;;;;;;;;;;4383086;32;67118;-57
2023/07/30 03:57:06;;;;;;;4.47;2.78;;;;;;;;;;4382121;32;59308;-57
2023/07/30 03:59:53;;;;;;;5.07;2.85;;;;;;;;;;4360805;32;70796;-57
2023/07/30 04:02:39;;;;;;;3.75;2.35;;;;;;;;;;4383081;32;69199;-57
2023/07/30 04:05:26;;;;;;;5.03;2.80;;;;;;;;;;4383061;32;68022;-56
2023/07/30 04:08:13;;;;;;;3.28;2.40;;;;;;;;;;4382919;32;70791;-56
2023/07/30 04:11:00;;;;;;;5.07;2.90;;;;;;;;;;4383139;32;66025;-56
2023/07/30 04:13:46;;;;;;;4.03;2.58;;;;;;;;;;4371130;32;69229;-56
2023/07/30 04:16:33;;;;;;;3.25;2.67;;;;;;;;;;4370994;32;66776;-57
2023/07/30 04:19:20;;;;;;;5.65;2.83;;;;;;;;;;4382783;32;71841;-58
2023/07/30 04:22:07;;;;;;;6.03;2.95;;;;;;;;;;4383158;32;64868;-57
2023/07/30 04:24:53;;;;;;;;;;;;;;;;;;4383276;32;67975;-56
2023/07/30 04:27:40;;;;;;;3.20;2.55;;;;;;;;;;4371040;32;59655;-57
2023/07/30 04:30:26;;;;;;;;;;;;;;;;;;4383048;32;69366;-57
2023/07/30 04:33:17;;;;;;;;;;;;;;;;;;4371284;32;68641;-57
2023/07/30 04:36:03;;;;;;;3.53;2.65;;;;;;;;;;4370936;32;67767;-57
2023/07/30 04:38:50;;;;;;;3.35;2.67;;;;;;;;;;4383172;32;59244;-57
2023/07/30 04:41:38;;;;;;;4.43;3.03;;;;;;;;;;4382249;32;69509;-56
2023/07/30 04:44:25;;;;;;;3.22;2.60;;;;;;;;;;4360070;32;69293;-57
2023/07/30 04:47:11;;;;;;;3.53;2.60;;;;;;;;;;4382649;32;67887;-57
2023/07/30 04:49:58;;;;;;;3.33;2.75;;;;;;;;;;4382551;32;70531;-56
2023/07/30 04:52:44;;;;;;;4.20;2.70;;;;;;;;;;4382490;32;65087;-56
2023/07/30 04:55:31;;;;;;;4.03;2.85;;;;;;;;;;4370697;32;67200;-56
2023/07/30 04:58:18;;;;;;;4.43;3.03;;;;;;;;;;4370784;32;59067;-57
2023/07/30 05:01:05;;;;;;;3.33;2.78;;;;;;;;;;4382410;32;71922;-56
2023/07/30 05:03:51;;;;;;;;;;;;;;;;;;4383115;32;65008;-56
2023/07/30 05:06:37;;;;;;;4.50;2.87;;;;;;;;;;4357457;32;68133;-56
2023/07/30 05:09:23;;;;;;;;;;;;;;;;;;4383078;32;59487;-57
2023/07/30 05:12:10;;;;;;;5.00;2.73;;;;;;;;;;4368036;32;69484;-56
2023/07/30 05:14:57;;;;;;;4.22;2.95;;;;;;;;;;4382334;32;68533;-57
2023/07/30 05:17:43;;;;;;;5.87;3.65;;;;;;;;;;4370360;32;68044;-57
2023/07/30 05:20:30;;;;;;;4.37;2.78;;;;;;;;;;4379956;32;71459;-57
2023/07/30 05:23:17;;;;;;;4.37;2.80;;;;;;;;;;4382748;32;65617;-57
2023/07/30 05:26:03;;;;;;;;;;;;;;;;;;4370543;32;68093;-57
2023/07/30 05:28:50;;;;;;;4.67;2.80;;;;;;;;;;4370833;32;67100;-56
2023/07/30 05:31:36;;;;;;;5.15;2.70;;;;;;;;;;4370115;32;71683;-57
2023/07/30 05:34:23;;;;;;;3.90;2.70;;;;;;;;;;4382175;32;66157;-57
2023/07/30 05:37:09;;;;;;;3.45;2.78;;;;;;;;;;4382283;32;67898;-57
2023/07/30 05:39:56;;;;;;;4.50;3.00;;;;;;;;;;4385003;32;59993;-57
2023/07/30 05:42:42;;;;;;;;;;;;;;;;;;4382523;32;70886;-57
2023/07/30 05:45:30;;;;;;;4.60;3.03;;;;;;;;;;4372898;32;69818;-57
2023/07/30 05:48:16;;;;;;;4.37;3.10;;;;;;;;;;4372756;32;67477;-57
2023/07/30 05:51:02;;;;;;;3.92;3.20;;;;;;;;;;4384810;32;59195;-57
2023/07/30 05:53:49;;;;;;;4.62;3.12;;;;;;;;;;4384644;32;70943;-57
2023/07/30 05:56:35;;;;;;;3.62;2.55;;;;;;;;;;4372737;32;69649;-56
2023/07/30 05:59:22;;;;;;;3.80;2.72;;;;;;;;;;4369868;32;68411;-58
2023/07/30 06:02:08;;;;;;;5.55;3.15;;;;;;;;;;4384442;32;71664;-56
2023/07/30 06:04:55;;;;;;;6.97;2.97;;;;;;;;;;4384634;32;65826;-56
2023/07/30 06:07:41;;;;;;;;;;;;;;;;;;4383551;32;67452;-57
2023/07/30 06:10:28;;;;;;;4.28;3.08;;;;;;;;;;4385062;32;59518;-57
2023/07/30 06:13:15;;;;;;;4.35;3.00;;;;;;;;;;4381960;32;71605;-56
2023/07/30 06:16:02;;;;;;;4.87;3.20;;;;;;;;;;4384335;32;66111;-57
2023/07/30 06:18:48;;;;;;;5.15;3.42;;;;;;;;;;4384327;32;67748;-56
2023/07/30 06:21:37;;;;;;;3.67;2.97;;;;;;;;;;4382274;32;61273;-56
2023/07/30 06:24:23;;;;;;;4.30;3.20;;;;;;;;;;4384080;32;69612;-57
2023/07/30 06:27:12;;;;;;;5.45;3.47;;;;;;;;;;4382939;32;69463;-57
2023/07/30 06:29:58;;;;;;;4.78;3.22;;;;;;;;;;4382010;32;68770;-57
2023/07/30 06:32:45;;;;;;;5.25;3.00;;;;;;;;;;4383897;32;71664;-57
2023/07/30 06:35:31;;;;;;;;;;;;;;;;;;4384578;32;66005;-57
2023/07/30 06:38:18;;;;;;;4.57;3.00;;;;;;;;;;4369871;32;68205;-57
2023/07/30 06:41:07;;;;;;;4.50;3.35;;;;;;;;;;4378853;32;67556;-57
2023/07/30 06:44:04;;;;;;;4.28;3.35;;;;;;;;;;4368816;32;72003;-57
2023/07/30 06:46:51;;;;;;;4.60;3.08;;;;;;;;;;4367702;32;65305;-57
2023/07/30 06:49:37;;;;;;;4.45;3.37;;;;;;;;;;4369059;32;68279;-56
2023/07/30 06:52:24;;;;;;;4.28;2.85;;;;;;;;;;4369248;32;60285;-56
2023/07/30 06:55:11;;;;;;;4.50;3.12;;;;;;;;;;4368818;32;69435;-57
2023/07/30 06:57:57;;;;;;;4.90;3.25;;;;;;;;;;4356267;32;69701;-56
2023/07/30 07:00:44;;;;;;;4.40;3.08;;;;;;;;;;4371245;32;67703;-57
2023/07/30 07:03:30;;;;;;;4.87;3.25;;;;;;;;;;4381077;32;60530;-58
2023/07/30 07:06:17;;;;;;;4.22;3.15;;;;;;;;;;4374065;32;70932;-57
2023/07/30 07:09:03;;;;;;;;;;;;;;;;;;4371019;32;68177;-56
2023/07/30 07:11:49;;;;;;;5.50;3.77;;;;;;;;;;4368194;32;67968;-56
2023/07/30 07:14:36;;;;;;;5.28;3.65;;;;;;;;;;4378058;32;70770;-57
2023/07/30 07:17:23;;;;;;;6.12;3.40;;;;;;;;;;4356139;32;67059;-56
2023/07/30 07:20:10;;;;;;;4.28;2.95;;;;;;;;;;4369169;32;67021;-56
2023/07/30 07:22:57;;;;;;;5.55;3.78;;;;;;;;;;4368908;32;59908;-56
2023/07/30 07:25:43;;;;;;;;;;;;;;;;;;4367406;32;69509;-57
2023/07/30 07:28:30;;;;;;;5.37;3.65;;;;;;;;;;4367862;32;65503;-56
2023/07/30 07:31:17;;;;;;;4.80;3.62;;;;;;;;;;4367053;32;67896;-57
2023/07/30 07:34:04;;;;;;;5.18;3.50;;;;;;;;;;4368532;32;59116;-57
2023/07/30 07:36:50;;;;;;;5.37;3.03;;;;;;;;;;4368324;32;70556;-55
2023/07/30 07:39:37;;;;;;;4.53;3.15;;;;;;;;;;4366251;32;69716;-57
2023/07/30 07:42:23;;;;;;;;;;;;;;;;;;4379194;32;67724;-57
2023/07/30 07:45:10;;;;;;;4.50;3.22;;;;;;;;;;4368874;32;72297;-57
2023/07/30 07:47:56;;;;;;;;;;;;;;;;;;4382359;32;64990;-57
2023/07/30 07:50:44;;;;;;;5.62;3.12;;;;;;;;;;4383833;32;68296;-57
2023/07/30 07:53:31;;;;;;;4.40;3.10;;;;;;;;;;4382038;32;66879;-56
2023/07/30 07:56:17;;;;;;;5.80;3.40;;;;;;;;;;4382959;32;71837;-57
2023/07/30 07:59:04;;;;;;;;;;;;;;;;;;4371814;32;64922;-56
2023/07/30 08:01:50;;;;;;;5.80;3.43;;;;;;;;;;4382957;32;68062;-57
2023/07/30 08:04:37;;;;;;;5.15;3.30;;;;;;;;;;4361020;32;58848;-56
2023/07/30 08:07:24;;;;;;;6.55;3.45;;;;;;;;;;4381845;32;70739;-57
2023/07/30 08:10:11;;;;;;;6.03;3.08;;;;;;;;;;4382954;32;68089;-57
2023/07/30 08:12:57;;;;;;;5.62;3.33;;;;;;;;;;4383023;32;67841;-57
2023/07/30 08:15:44;;;;;;;5.37;3.10;;;;;;;;;;4383076;32;71358;-57
2023/07/30 08:18:30;;;;;;;4.85;3.40;;;;;;;;;;4382934;32;70914;-57
2023/07/30 08:21:20;;;;;;;4.60;3.12;;;;;;;;;;4383026;32;69425;-57
2023/07/30 08:24:06;;;;;;;4.32;3.20;;;;;;;;;;4381617;32;66767;-57
2023/07/30 08:26:53;;;;;;;4.78;3.47;;;;;;;;;;4382754;32;70607;-57
2023/07/30 08:29:39;;;;;;;4.10;3.08;;;;;;;;;;4383158;32;65990;-56
2023/07/30 08:32:26;;;;;;;5.55;3.45;;;;;;;;;;4381459;32;67142;-57
2023/07/30 08:35:12;;;;;;;4.53;3.00;;;;;;;;;;4382069;32;60242;-57
2023/07/30 08:37:59;;;;;;;4.12;2.90;;;;;;;;;;4382911;32;70756;-57
2023/07/30 08:40:45;;;;;;;4.07;2.85;;;;;;;;;;4382390;32;68817;-58
2023/07/30 08:43:32;;;;;;;4.78;3.30;;;;;;;;;;4382792;32;67748;-57
2023/07/30 08:46:19;;;;;;;5.45;3.20;;;;;;;;;;4382949;32;59987;-57
2023/07/30 08:49:06;;;;;;;6.03;3.90;;;;;;;;;;4382576;32;70869;-57
2023/07/30 08:51:53;;;;;;;;;;;;;;;;;;4382977;32;69521;-57
2023/07/30 08:54:40;;;;;;;4.22;3.20;;;;;;;;;;4382719;32;67081;-57
2023/07/30 08:57:27;;;;;;;4.70;3.12;;;;;;;;;;4382556;32;70816;-57
2023/07/30 09:00:17;;;;;;;5.45;3.10;;;;;;;;;;4382568;32;66272;-56
2023/07/30 09:03:05;;;;;;;6.47;3.33;;;;;;;;;;4382550;32;67721;-57
2023/07/30 09:05:52;;;;;;;3.97;2.90;;;;;;;;;;4371073;32;59360;-57
2023/07/30 09:08:39;;;;;;;4.20;3.10;;;;;;;;;;4382433;32;71304;-57
2023/07/30 09:11:28;;;;;;;5.15;3.42;;;;;;;;;;4382699;32;66056;-57
2023/07/30 09:14:15;;;;;;;3.78;3.15;;;;;;;;;;4381929;32;69060;-57
2023/07/30 09:17:01;;;;;;;3.65;3.03;;;;;;;;;;4373482;32;59106;-57
2023/07/30 09:19:50;;;;;;;4.25;3.05;;;;;;;;;;4383878;32;70913;-56
2023/07/30 09:22:39;;;;;;;5.03;2.90;;;;;;;;;;4373384;32;68901;-56
2023/07/30 09:25:26;;;;;;;4.72;3.30;;;;;;;;;;4373585;32;66577;-56
2023/07/30 09:28:12;;;;;;;4.05;3.12;;;;;;;;;;4373201;32;71500;-56
2023/07/30 09:31:08;;;;;;;4.60;3.30;;;;;;;;;;4384698;32;70353;-56
2023/07/30 09:33:56;;;;;;;5.32;3.30;;;;;;;;;;4384665;32;69746;-57
2023/07/30 09:36:44;;;;;;;5.10;3.65;;;;;;;;;;4384750;32;66844;-56
2023/07/30 09:39:31;;;;;;;4.87;3.60;;;;;;;;;;4384660;32;71730;-57
2023/07/30 09:42:17;;;;;;;;;;;;;;;;;;4384861;32;65842;-57
2023/07/30 09:45:04;;;;;;;7.37;3.60;;;;;;;;;;4362586;32;67557;-57
2023/07/30 09:47:51;;;;;;;4.12;3.20;;;;;;;;;;4384929;32;60048;-56
2023/07/30 09:50:38;;;;;;;4.80;3.55;;;;;;;;;;4384547;32;70293;-56
2023/07/30 09:53:26;;;;;;;5.20;3.55;;;;;;;;;;4382347;32;70679;-57
2023/07/30 09:56:13;;;;;;;4.20;3.20;;;;;;;;;;4359044;32;68928;-56
2023/07/30 09:59:00;;;;;;;5.70;3.83;;;;;;;;;;4384772;32;60348;-57
2023/07/30 10:01:49;;;;;;;4.93;3.30;;;;;;;;;;4372536;32;69497;-56
2023/07/30 10:04:41;;;;;;;5.62;3.53;;;;;;;;;;4372708;32;69203;-57
2023/07/30 10:07:29;;;;;;;4.30;3.20;;;;;;;;;;4372429;32;67263;-56
2023/07/30 10:10:16;;;;;;;6.07;4.10;;;;;;;;;;4372641;32;71913;-57
2023/07/30 10:13:06;;;;;;;3.83;2.95;;;;;;;;;;4372716;32;65724;-56
2023/07/30 10:15:53;;;;;;;5.25;3.62;;;;;;;;;;4372448;32;68217;-56
2023/07/30 10:18:40;;;;;;;;;;;;;;;;;;4384983;32;60413;-57
2023/07/30 10:21:29;;;;;;;4.47;3.10;;;;;;;;;;4359284;32;72486;-57
2023/07/30 10:24:15;;;;;;;4.00;3.08;;;;;;;;;;4382882;32;65939;-57
2023/07/30 10:27:06;;;;;;;4.80;3.50;;;;;;;;;;4384581;32;67772;-56
2023/07/30 10:30:15;;;;;;;4.93;3.00;;;;;;;;;;4385103;32;58843;-57
2023/07/30 10:33:04;;;;;;;4.85;3.50;;;;;;;;;;4384469;32;70535;-56
2023/07/30 10:35:55;;;;;;;4.07;3.30;;;;;;;;;;4369898;32;71168;-57
2023/07/30 10:38:43;;;;;;;4.95;3.10;;;;;;;;;;4382181;32;68351;-56
2023/07/30 10:41:29;;;;;;;4.95;3.35;;;;;;;;;;4383980;32;71747;-57
2023/07/30 10:44:33;;;;;;;4.78;3.60;;;;;;;;;;4372648;32;66042;-57
2023/07/30 10:47:20;;;;;;;4.18;3.35;;;;;;;;;;4381776;32;67001;-57
2023/07/30 10:50:07;;;;;;;5.18;3.50;;;;;;;;;;4372223;32;67624;-57
2023/07/30 10:52:53;;;;;;;4.93;3.17;;;;;;;;;;4371997;32;71709;-56
2023/07/30 10:55:40;;;;;;;4.62;3.10;;;;;;;;;;4372032;32;64964;-58
2023/07/30 10:58:26;;;;;;;5.68;3.72;;;;;;;;;;4361510;32;67053;-56
2023/07/30 11:01:13;;;;;;;5.62;3.40;;;;;;;;;;4384350;32;59637;-56
2023/07/30 11:04:00;;;;;;;5.68;3.55;;;;;;;;;;4372152;32;69982;-56
2023/07/30 11:06:48;;;;;;;6.53;4.57;;;;;;;;;;4381630;32;69902;-56
2023/07/30 11:09:35;;;;;;;7.03;3.80;;;;;;;;;;4383909;32;67792;-57
2023/07/30 11:12:22;;;;;;;5.53;3.78;;;;;;;;;;4384180;32;60310;-56
2023/07/30 11:15:10;;;;;;;5.47;3.70;;;;;;;;;;4383630;32;70570;-56
2023/07/30 11:17:57;;;;;;;4.78;3.35;;;;;;;;;;4383485;32;68432;-57
2023/07/30 11:20:44;;;;;;;6.70;3.67;;;;;;;;;;4361173;32;68048;-56
2023/07/30 11:23:30;;;;;;;5.22;3.42;;;;;;;;;;4383346;32;70448;-56
2023/07/30 11:26:18;;;;;;;;;;;;;;;;;;4384017;32;65995;-57
2023/07/30 11:29:21;;;;;;;5.50;3.62;;;;;;;;;;4383651;32;68132;-56
2023/07/30 11:32:07;;;;;;;4.93;3.80;;;;;;;;;;4383712;32;59262;-57
2023/07/30 11:34:54;;;;;;;4.75;3.75;;;;;;;;;;4371380;32;70415;-56
2023/07/30 11:37:42;;;;;;;5.40;3.70;;;;;;;;;;4370482;32;66037;-56
2023/07/30 11:40:32;;;;;;;4.55;3.20;;;;;;;;;;4383452;32;67743;-57
2023/07/30 11:43:20;;;;;;;5.93;3.10;;;;;;;;;;4371771;32;59872;-56
2023/07/30 11:46:15;;;;;;;5.97;3.83;;;;;;;;;;4371445;32;69159;-56
2023/07/30 11:49:16;;;;;;;5.45;3.55;;;;;;;;;;4371333;32;68343;-56
2023/07/30 11:52:10;;;;;;;4.95;3.45;;;;;;;;;;4382162;32;67822;-57
2023/07/30 11:55:06;;;;;;;4.72;3.20;;;;;;;;;;4380842;32;72476;-57
2023/07/30 11:57:53;;;;;;;4.55;3.47;;;;;;;;;;4371617;32;65908;-57
2023/07/30 12:00:40;;;;;;;3.78;3.33;;;;;;;;;;4380808;32;69644;-56
2023/07/30 12:03:27;;;;;;;5.05;3.40;;;;;;;;;;4383082;32;68087;-56
2023/07/30 12:06:13;;;;;;;4.30;3.17;;;;;;;;;;4382951;32;71673;-56
2023/07/30 12:09:01;;;;;;;4.30;3.10;;;;;;;;;;4383276;32;65842;-57
2023/07/30 12:11:58;;;;;;;5.50;3.17;;;;;;;;;;4381834;32;68151;-57
2023/07/30 12:14:47;;;;;;;3.62;2.60;;;;;;;;;;4371397;32;60234;-57
2023/07/30 12:17:34;;;;;;;3.60;3.03;;;;;;;;;;4382805;32;70612;-56
2023/07/30 12:20:20;;;;;;;4.05;3.00;;;;;;;;;;4383023;32;69303;-56
2023/07/30 12:23:07;;;;;;;;;;;;;;;;;;4383542;32;67711;-56
2023/07/30 12:25:54;;;;;;;3.70;2.80;;;;;;;;;;4383409;32;59115;-57
2023/07/30 12:28:40;;;;;;;;;;;;;;;;;;4357926;32;69214;-56
2023/07/30 12:31:26;;;;;;;4.43;2.97;;;;;;;;;;4357792;32;67917;-59
2023/07/30 12:34:13;;;;;;;2.92;2.42;;;;;;;;;;4382750;32;67894;-56
2023/07/30 12:37:00;;;;;;;3.15;2.53;;;;;;;;;;4382565;32;71813;-57
2023/07/30 12:39:46;;;;;;;3.60;2.40;;;;;;;;;;4382669;32;65110;-57
2023/07/30 12:42:33;;;;;;;3.10;2.62;;;;;;;;;;4370510;32;68207;-56
2023/07/30 12:45:19;;;;;;;3.37;2.72;;;;;;;;;;4380645;32;61586;-56
2023/07/30 12:48:07;;;;;;;3.42;2.78;;;;;;;;;;4381944;32;71786;-56
2023/07/30 12:50:54;;;;;;;3.62;3.00;;;;;;;;;;4385431;32;65790;-57
2023/07/30 12:53:41;;;;;;;3.78;3.10;;;;;;;;;;4385367;32;67926;-56
2023/07/30 12:56:27;;;;;;;4.10;2.35;;;;;;;;;;4359974;32;61274;-56
2023/07/30 12:59:14;;;;;;;3.92;2.72;;;;;;;;;;4387814;32;70558;-56
2023/07/30 13:02:00;;;;;;;;;;;;;;;;;;4385997;32;69470;-57
2023/07/30 13:04:46;;;;;;;3.40;2.40;;;;;;;;;;4385766;32;67851;-57
2023/07/30 13:07:32;;;;;;;;;;;;;;;;;;4386673;32;72275;-57
2023/07/30 13:10:19;;;;;;;2.65;2.30;;;;;;;;;;4391700;32;66500;-57
2023/07/30 13:13:06;;;;;;;4.43;2.35;;;;;;;;;;4390614;32;67543;-57
2023/07/30 13:15:57;;;;;;;3.25;2.35;;;;;;;;;;4390853;32;67631;-56
2023/07/30 13:18:43;;;;;;;3.45;2.70;;;;;;;;;;4388610;32;70881;-58
2023/07/30 13:21:39;;;;;;;3.33;2.60;;;;;;;;;;4385554;32;65751;-57
2023/07/30 13:24:36;;;;;;;3.85;3.00;;;;;;;;;;4364865;32;68271;-57
2023/07/30 13:27:23;;;;;;;4.90;3.00;;;;;;;;;;4383334;32;58174;-57
2023/07/30 13:30:09;;;;;;;4.37;2.72;;;;;;;;;;4385699;32;70479;-56
2023/07/30 13:32:56;;;;;;;4.90;2.87;;;;;;;;;;4384794;32;69046;-56
2023/07/30 13:35:42;;;;;;;;;;;;;;;;;;4385162;32;67714;-57
2023/07/30 13:38:29;;;;;;;4.03;3.00;;;;;;;;;;4373624;32;71312;-57
2023/07/30 13:41:15;;;;;;;3.67;2.53;;;;;;;;;;4384531;32;70568;-56
2023/07/30 13:44:02;;;;;;;3.78;2.83;;;;;;;;;;4382484;32;69735;-57
2023/07/30 13:46:50;;;;;;;4.60;2.50;;;;;;;;;;4382713;32;67366;-56
2023/07/30 13:49:37;;;;;;;2.55;2.35;;;;;;;;;;4372685;32;71462;-56
2023/07/30 13:52:23;;;;;;;2.37;2.17;;;;;;;;;;4384685;32;65373;-56
2023/07/30 13:55:10;;;;;;;2.22;1.95;;;;;;;;;;4359527;32;68280;-57
2023/07/30 13:57:56;;;;;;;2.50;2.10;;;;;;;;;;4383605;32;59003;-56
2023/07/30 14:00:43;;;;;;;2.12;1.92;;;;;;;;;;4384058;32;70744;-57
2023/07/30 14:03:30;;;;;;;4.82;2.10;;;;;;;;;;4384697;32;68082;-56
2023/07/30 14:06:16;;;;;;;;;;;;;;;;;;4382694;32;67578;-57
2023/07/30 14:09:04;;;;;;;1.90;1.80;;;;;;;;;;4372962;32;59594;-56
2023/07/30 14:11:50;;;;;;;2.30;2.10;;;;;;;;;;4384387;32;70173;-56
2023/07/30 14:14:37;;;;;;;2.50;2.12;;;;;;;;;;4384413;32;69317;-57
2023/07/30 14:17:23;;;;;;;;;;;;;;;;;;4384558;32;67813;-57
2023/07/30 14:20:10;;;;;;;3.67;2.42;;;;;;;;;;4384361;32;71889;-56
2023/07/30 14:23:00;;;;;;;2.30;2.10;;;;;;;;;;4383094;32;64947;-55
2023/07/30 14:25:47;;;;;;;2.72;2.42;;;;;;;;;;4384385;32;67806;-57
2023/07/30 14:28:33;;;;;;;;;;;;;;;;;;4359181;32;67676;-56
2023/07/30 14:31:20;;;;;;;3.30;2.57;;;;;;;;;;4384234;32;70925;-56
2023/07/30 14:34:07;;;;;;;3.40;2.20;;;;;;;;;;4384178;32;66232;-56
2023/07/30 14:36:54;;;;;;;2.40;2.20;;;;;;;;;;4372216;32;67871;-56
2023/07/30 14:39:41;;;;;;;2.87;2.30;;;;;;;;;;4371645;32;59979;-57
2023/07/30 14:42:28;;;;;;;4.72;2.42;;;;;;;;;;4383762;32;70698;-57
2023/07/30 14:45:14;;;;;;;3.25;2.40;;;;;;;;;;4382682;32;69549;-57
2023/07/30 14:48:00;;;;;;;4.05;2.22;;;;;;;;;;4382857;32;66536;-57
2023/07/30 14:50:47;;;;;;;2.58;2.37;;;;;;;;;;4372173;32;70796;-57
2023/07/30 14:53:34;;;;;;;3.65;2.30;;;;;;;;;;4383965;32;70255;-57
2023/07/30 14:56:17;;;;;;;3.42;2.83;;;;;;;;;;3847452;37;43449;-56
2023/07/30 14:59:05;;;;;;;4.37;2.95;;;;;;;;;;4409481;32;58441;-56
2023/07/30 15:01:52;;;;;;;3.37;2.60;;;;;;;;;;4409229;32;68940;-57
2023/07/30 15:04:39;;;;;;;5.72;2.70;;;;;;;;;;4409114;32;67030;-57
2023/07/30 15:07:25;;;;;;;5.12;2.97;;;;;;;;;;4409167;32;67224;-56
2023/07/30 15:10:13;;;;;;;4.40;2.92;;;;;;;;;;4410810;32;72080;-56
2023/07/30 15:12:59;;;;;;;5.18;2.55;;;;;;;;;;4410988;32;65999;-57
2023/07/30 15:15:46;;;;;;;3.80;2.90;;;;;;;;;;4410776;32;67205;-57
2023/07/30 15:18:33;;;;;;;;;;;;;;;;;;4411345;32;59410;-57
2023/07/30 15:21:19;;;;;;;3.75;2.70;;;;;;;;;;4410874;32;72056;-57
2023/07/30 15:24:06;;;;;;;;;;;;;;;;;;4409427;32;64096;-57
2023/07/30 15:26:53;;;;;;;4.68;2.65;;;;;;;;;;4410883;32;67822;-56
2023/07/30 15:29:39;;;;;;;7.03;3.10;;;;;;;;;;4410957;32;59963;-56
2023/07/30 15:32:26;;;;;;;3.45;2.60;;;;;;;;;;4410340;32;70105;-56
2023/07/30 15:35:13;;;;;;;3.62;2.72;;;;;;;;;;4409157;32;69513;-57
2023/07/30 15:38:00;;;;;;;3.45;2.50;;;;;;;;;;4410554;32;66527;-57
2023/07/30 15:40:46;;;;;;;3.65;2.80;;;;;;;;;;4410362;32;70885;-57
2023/07/30 15:43:33;;;;;;;4.20;2.60;;;;;;;;;;4410874;32;65791;-56
2023/07/30 15:46:20;;;;;;;5.10;3.20;;;;;;;;;;4410499;32;69097;-57
2023/07/30 15:49:06;;;;;;;3.78;2.87;;;;;;;;;;4410306;32;66672;-57
2023/07/30 15:51:53;;;;;;;;;;;;;;;;;;4409126;32;70052;-57
2023/07/30 15:54:39;;;;;;;4.17;3.00;;;;;;;;;;4410249;32;65291;-56
2023/07/30 15:57:26;;;;;;;4.40;3.22;;;;;;;;;;4408514;32;65628;-57
2023/07/30 16:00:15;;;;;;;4.43;3.17;;;;;;;;;;4410548;32;60437;-57
2023/07/30 16:03:07;;;;;;;4.80;3.08;;;;;;;;;;4410092;32;70443;-56
2023/07/30 16:05:53;;;;;;;5.05;2.80;;;;;;;;;;4407158;32;69265;-57
2023/07/30 16:08:40;;;;;;;4.70;3.20;;;;;;;;;;4398244;32;65972;-56
2023/07/30 16:11:26;;;;;;;;;;;;;;;;;;4377573;32;59563;-56
2023/07/30 16:14:14;;;;;;;3.07;2.40;;;;;;;;;;4398629;32;69436;-57
2023/07/30 16:17:00;;;;;;;3.90;2.70;;;;;;;;;;4398648;32;69392;-57
2023/07/30 16:19:47;;;;;;;3.50;2.62;;;;;;;;;;4399835;32;67674;-56
2023/07/30 16:22:33;;;;;;;3.37;2.37;;;;;;;;;;4398206;32;69430;-56
2023/07/30 16:25:20;;;;;;;;;;;;;;;;;;4400265;32;65405;-57
2023/07/30 16:28:06;;;;;;;3.65;2.40;;;;;;;;;;4400181;32;66659;-59
2023/07/30 16:30:53;;;;;;;2.85;2.33;;;;;;;;;;4398001;32;60493;-56
2023/07/30 16:33:39;;;;;;;;;;;;;;;;;;4387858;32;70256;-56
2023/07/30 16:36:29;;;;;;;3.90;2.53;;;;;;;;;;4398103;32;64643;-56
2023/07/30 16:39:15;;;;;;;5.10;2.42;;;;;;;;;;4399616;32;67466;-56
2023/07/30 16:42:02;;;;;;;3.47;2.67;;;;;;;;;;4398601;32;60486;-57
2023/07/30 16:44:48;;;;;;;;;;;;;;;;;;4387916;32;70490;-56
2023/07/30 16:47:35;;;;;;;3.42;2.53;;;;;;;;;;4398290;32;69396;-56
2023/07/30 16:50:22;;;;;;;3.35;2.58;;;;;;;;;;4397711;32;66970;-56
2023/07/30 16:53:09;;;;;;;3.62;2.37;;;;;;;;;;4387632;32;71783;-56
2023/07/30 16:55:56;;;;;;;3.47;2.65;;;;;;;;;;4399034;32;65469;-57